createdAt,value
2022-08-21T04:00:30.412Z,65.76
2022-08-21T04:01:30.408Z,66.27
2022-08-21T04:02:30.338Z,66.27
2022-08-21T04:03:30.326Z,65.89
2022-08-21T04:04:30.313Z,66.19
2022-08-21T04:05:30.304Z,65.99
2022-08-21T04:06:34.554Z,65.39
2022-08-21T04:07:31.280Z,66.19
2022-08-21T04:08:30.267Z,66.39
2022-08-21T04:09:30.260Z,66.39
2022-08-21T04:10:30.247Z,66.60
2022-08-21T04:11:35.267Z,66.22
2022-08-21T04:12:30.225Z,65.92
2022-08-21T04:13:30.214Z,66.73
2022-08-21T04:14:30.201Z,67.13
2022-08-21T04:15:30.194Z,67.13
2022-08-21T04:16:30.185Z,67.54
2022-08-21T04:17:30.196Z,67.23
2022-08-21T04:18:30.157Z,66.73
2022-08-21T04:19:30.146Z,66.96
2022-08-21T04:20:30.134Z,66.93
2022-08-21T04:21:30.125Z,67.03
2022-08-21T04:22:35.184Z,66.53
2022-08-21T04:23:30.102Z,66.66
2022-08-21T04:24:30.101Z,66.66
2022-08-21T04:25:30.082Z,66.66
2022-08-21T04:26:30.074Z,66.66
2022-08-21T04:27:30.068Z,66.42
2022-08-21T04:28:30.441Z,66.22
2022-08-21T04:29:30.035Z,66.33
2022-08-21T04:30:30.025Z,66.22
2022-08-21T04:31:30.012Z,66.25
2022-08-21T04:32:30.017Z,66.63
2022-08-21T04:33:35.013Z,66.66
2022-08-21T04:34:29.977Z,66.83
2022-08-21T04:35:29.969Z,67.27
2022-08-21T04:36:29.958Z,67.16
2022-08-21T04:37:29.958Z,66.83
2022-08-21T04:38:36.525Z,67.33
2022-08-21T04:39:30.923Z,67.63
2022-08-21T04:40:30.008Z,67.54
2022-08-21T04:41:29.902Z,67.63
2022-08-21T04:42:29.902Z,67.47
2022-08-21T04:43:29.879Z,67.27
2022-08-21T04:44:34.890Z,67.67
2022-08-21T04:45:29.857Z,67.36
2022-08-21T04:46:29.844Z,68.37
2022-08-21T04:47:44.560Z,67.87
2022-08-21T04:48:30.823Z,67.77
2022-08-21T04:49:29.812Z,67.87
2022-08-21T04:50:29.800Z,67.87
2022-08-21T04:51:30.908Z,68.10
2022-08-21T04:52:29.796Z,68.07
2022-08-21T04:53:29.769Z,68.48
2022-08-21T04:54:29.754Z,68.17
2022-08-21T04:55:34.773Z,67.67
2022-08-21T04:56:29.732Z,67.07
2022-08-21T04:57:34.210Z,67.87
2022-08-21T04:58:30.709Z,67.67
2022-08-21T04:59:29.700Z,67.54
2022-08-21T05:00:29.687Z,66.96
2022-08-21T05:01:29.742Z,67.67
2022-08-21T05:02:29.680Z,67.67
2022-08-21T05:03:29.653Z,67.43
2022-08-21T05:04:29.648Z,67.27
2022-08-21T05:05:29.634Z,66.96
2022-08-21T05:06:34.644Z,66.73
2022-08-21T05:07:42.786Z,66.66
2022-08-21T05:08:30.599Z,67.67
2022-08-21T05:09:29.593Z,67.74
2022-08-21T05:10:29.583Z,67.27
2022-08-21T05:11:29.568Z,67.57
2022-08-21T05:12:29.567Z,67.16
2022-08-21T05:13:29.572Z,67.87
2022-08-21T05:14:29.537Z,67.16
2022-08-21T05:15:29.519Z,67.36
2022-08-21T05:16:36.708Z,67.67
2022-08-21T05:17:35.529Z,67.36
2022-08-21T05:18:29.495Z,66.83
2022-08-21T05:19:29.479Z,67.03
2022-08-21T05:20:29.468Z,66.83
2022-08-21T05:21:29.453Z,66.60
2022-08-21T05:22:29.462Z,67.33
2022-08-21T05:23:29.441Z,66.93
2022-08-21T05:24:29.421Z,67.23
2022-08-21T05:25:29.408Z,67.63
2022-08-21T05:26:29.408Z,67.33
2022-08-21T05:27:29.403Z,67.74
2022-08-21T05:28:34.397Z,68.24
2022-08-21T05:29:29.366Z,67.84
2022-08-21T05:30:29.355Z,67.94
2022-08-21T05:31:29.342Z,67.84
2022-08-21T05:32:29.334Z,67.74
2022-08-21T05:33:29.328Z,67.84
2022-08-21T05:34:29.316Z,67.84
2022-08-21T05:35:29.300Z,67.43
2022-08-21T05:36:29.286Z,67.43
2022-08-21T05:37:29.275Z,68.04
2022-08-21T05:38:29.288Z,67.63
2022-08-21T05:40:05.217Z,67.84
2022-08-21T05:40:30.307Z,67.94
2022-08-21T05:41:29.234Z,68.44
2022-08-21T05:42:29.219Z,67.63
2022-08-21T05:43:29.220Z,68.01
2022-08-21T05:44:29.197Z,67.43
2022-08-21T05:45:43.452Z,67.40
2022-08-21T05:46:30.174Z,67.60
2022-08-21T05:47:29.177Z,67.40
2022-08-21T05:48:29.165Z,67.37
2022-08-21T05:49:29.144Z,66.87
2022-08-21T05:50:34.152Z,66.06
2022-08-21T05:51:29.117Z,66.56
2022-08-21T05:52:29.108Z,65.73
2022-08-21T05:53:29.108Z,65.62
2022-08-21T05:54:29.091Z,65.73
2022-08-21T05:55:29.074Z,66.03
2022-08-21T05:56:30.062Z,65.59
2022-08-21T05:57:29.055Z,64.59
2022-08-21T05:58:29.053Z,64.69
2022-08-21T05:59:29.028Z,64.79
2022-08-21T06:00:29.110Z,65.42
2022-08-21T06:01:34.104Z,65.53
2022-08-21T06:02:28.997Z,65.83
2022-08-21T06:03:28.996Z,65.73
2022-08-21T06:04:28.975Z,65.93
2022-08-21T06:05:36.580Z,66.60
2022-08-21T06:06:29.958Z,66.40
2022-08-21T06:07:28.940Z,66.91
2022-08-21T06:08:28.941Z,65.80
2022-08-21T06:09:28.918Z,65.56
2022-08-21T06:10:28.963Z,65.67
2022-08-21T06:11:29.243Z,65.26
2022-08-21T06:12:33.905Z,64.16
2022-08-21T06:13:28.943Z,63.96
2022-08-21T06:14:28.870Z,63.96
2022-08-21T06:15:28.849Z,63.96
2022-08-21T06:16:28.844Z,64.36
2022-08-21T06:17:28.828Z,64.26
2022-08-21T06:18:28.831Z,64.03
2022-08-21T06:19:28.806Z,63.12
2022-08-21T06:20:28.799Z,62.89
2022-08-21T06:21:28.783Z,62.69
2022-08-21T06:22:28.774Z,62.26
2022-08-21T06:23:33.801Z,60.85
2022-08-21T06:24:28.752Z,61.13
2022-08-21T06:25:28.744Z,60.49
2022-08-21T06:26:28.735Z,59.86
2022-08-21T06:27:28.718Z,59.31
2022-08-21T06:28:28.726Z,56.45
2022-08-21T06:29:28.702Z,55.42
2022-08-21T06:30:28.695Z,55.62
2022-08-21T06:31:28.672Z,55.94
2022-08-21T06:32:28.664Z,56.27
2022-08-21T06:33:32.510Z,56.90
2022-08-21T06:34:33.662Z,56.60
2022-08-21T06:35:28.628Z,57.73
2022-08-21T06:36:28.620Z,57.46
2022-08-21T06:37:28.605Z,58.36
2022-08-21T06:38:28.614Z,58.36
2022-08-21T06:39:32.301Z,58.06
2022-08-21T06:40:28.602Z,57.96
2022-08-21T06:41:28.563Z,58.13
2022-08-21T06:42:28.553Z,58.16
2022-08-21T06:43:32.794Z,59.06
2022-08-21T06:44:29.554Z,58.96
2022-08-21T06:45:33.538Z,58.39
2022-08-21T06:46:28.509Z,59.26
2022-08-21T06:47:28.497Z,59.06
2022-08-21T06:48:28.486Z,58.46
2022-08-21T06:49:28.485Z,58.33
2022-08-21T06:50:28.464Z,56.80
2022-08-21T06:51:28.453Z,56.70
2022-08-21T06:52:28.441Z,56.90
2022-08-21T06:53:28.428Z,56.70
2022-08-21T06:54:28.429Z,56.95
2022-08-21T06:55:29.261Z,55.85
2022-08-21T06:56:33.418Z,55.72
2022-08-21T06:57:28.385Z,56.15
2022-08-21T06:58:28.389Z,55.55
2022-08-21T06:59:28.362Z,55.74
2022-08-21T07:00:28.360Z,55.67
2022-08-21T07:01:28.438Z,55.44
2022-08-21T07:02:28.338Z,55.77
2022-08-21T07:03:28.336Z,55.80
2022-08-21T07:04:28.310Z,56.30
2022-08-21T07:05:28.295Z,57.28
2022-08-21T07:06:28.289Z,57.05
2022-08-21T07:07:33.294Z,56.05
2022-08-21T07:08:28.269Z,55.35
2022-08-21T07:09:28.263Z,54.64
2022-08-21T07:10:28.243Z,55.15
2022-08-21T07:11:28.230Z,56.15
2022-08-21T07:12:28.219Z,55.85
2022-08-21T07:13:28.205Z,55.74
2022-08-21T07:14:28.216Z,55.44
2022-08-21T07:15:28.189Z,54.94
2022-08-21T07:16:28.174Z,55.74
2022-08-21T07:17:28.163Z,55.55
2022-08-21T07:18:33.182Z,54.64
2022-08-21T07:19:28.150Z,55.32
2022-08-21T07:20:28.129Z,55.42
2022-08-21T07:21:28.116Z,55.12
2022-08-21T07:22:28.109Z,55.02
2022-08-21T07:23:28.103Z,54.82
2022-08-21T07:24:28.101Z,55.12
2022-08-21T07:25:28.074Z,55.12
2022-08-21T07:26:28.063Z,54.32
2022-08-21T07:27:28.055Z,55.42
2022-08-21T07:28:28.276Z,54.72
2022-08-21T07:29:33.076Z,54.92
2022-08-21T07:30:28.018Z,54.92
2022-08-21T07:31:28.009Z,54.82
2022-08-21T07:32:27.996Z,54.72
2022-08-21T07:33:27.982Z,54.52
2022-08-21T07:34:27.983Z,54.82
2022-08-21T07:35:27.960Z,54.92
2022-08-21T07:36:27.951Z,54.39
2022-08-21T07:37:27.939Z,54.79
2022-08-21T07:38:27.930Z,54.99
2022-08-21T07:39:27.932Z,53.89
2022-08-21T07:40:32.929Z,53.99
2022-08-21T07:41:27.895Z,53.99
2022-08-21T07:42:27.885Z,54.06
2022-08-21T07:43:27.871Z,54.10
2022-08-21T07:44:27.873Z,54.77
2022-08-21T07:45:27.851Z,54.27
2022-08-21T07:46:27.851Z,53.87
2022-08-21T07:47:41.813Z,54.47
2022-08-21T07:48:28.817Z,53.87
2022-08-21T07:49:27.818Z,53.77
2022-08-21T07:50:27.798Z,53.27
2022-08-21T07:51:32.806Z,53.97
2022-08-21T07:52:27.778Z,53.64
2022-08-21T07:53:27.763Z,53.84
2022-08-21T07:54:33.931Z,52.64
2022-08-21T07:55:28.739Z,52.94
2022-08-21T07:56:27.732Z,53.34
2022-08-21T07:57:27.723Z,53.84
2022-08-21T07:58:27.709Z,53.74
2022-08-21T07:59:27.707Z,53.84
2022-08-21T08:00:27.688Z,53.94
2022-08-21T08:01:27.712Z,53.92
2022-08-21T08:02:32.692Z,53.81
2022-08-21T08:03:28.590Z,54.11
2022-08-21T08:04:27.664Z,53.72
2022-08-21T08:05:27.631Z,52.89
2022-08-21T08:06:27.629Z,52.79
2022-08-21T08:07:27.612Z,52.99
2022-08-21T08:08:27.604Z,52.59
2022-08-21T08:09:27.600Z,53.89
2022-08-21T08:10:27.580Z,53.69
2022-08-21T08:11:27.565Z,53.69
2022-08-21T08:12:27.557Z,53.89
2022-08-21T08:13:32.598Z,53.89
2022-08-21T08:14:31.605Z,53.69
2022-08-21T08:15:27.535Z,53.69
2022-08-21T08:16:27.516Z,54.39
2022-08-21T08:17:27.500Z,52.99
2022-08-21T08:18:27.492Z,53.19
2022-08-21T08:19:27.488Z,52.47
2022-08-21T08:20:27.470Z,52.67
2022-08-21T08:21:27.457Z,51.87
2022-08-21T08:22:27.446Z,52.27
2022-08-21T08:23:27.434Z,51.97
2022-08-21T08:24:32.457Z,52.17
2022-08-21T08:25:27.412Z,51.97
2022-08-21T08:26:27.402Z,51.97
2022-08-21T08:27:27.389Z,53.19
2022-08-21T08:28:27.382Z,53.61
2022-08-21T08:29:27.380Z,54.14
2022-08-21T08:30:31.262Z,54.02
2022-08-21T08:31:28.346Z,53.81
2022-08-21T08:32:27.337Z,54.11
2022-08-21T08:33:27.332Z,53.92
2022-08-21T08:34:27.328Z,53.61
2022-08-21T08:35:32.341Z,53.92
2022-08-21T08:36:27.296Z,53.89
2022-08-21T08:37:30.480Z,53.06
2022-08-21T08:38:28.270Z,52.89
2022-08-21T08:39:29.604Z,52.97
2022-08-21T08:40:27.274Z,51.97
2022-08-21T08:41:30.843Z,52.44
2022-08-21T08:42:32.730Z,52.44
2022-08-21T08:43:28.211Z,52.04
2022-08-21T08:44:27.204Z,52.17
2022-08-21T08:45:27.223Z,52.74
2022-08-21T08:46:32.206Z,52.34
2022-08-21T08:47:27.173Z,52.34
2022-08-21T08:48:27.158Z,52.84
2022-08-21T08:49:27.171Z,52.55
2022-08-21T08:50:27.135Z,51.95
2022-08-21T08:51:27.125Z,52.14
2022-08-21T08:52:27.113Z,52.25
2022-08-21T08:53:27.103Z,52.44
2022-08-21T08:54:27.099Z,52.04
2022-08-21T08:55:27.434Z,51.92
2022-08-21T08:56:27.071Z,51.92
2022-08-21T08:57:32.079Z,52.72
2022-08-21T08:58:27.045Z,52.51
2022-08-21T08:59:27.050Z,52.12
2022-08-21T09:00:27.026Z,52.32
2022-08-21T09:01:27.025Z,52.19
2022-08-21T09:02:27.150Z,52.49
2022-08-21T09:03:26.994Z,51.97
2022-08-21T09:04:26.992Z,51.05
2022-08-21T09:05:26.978Z,51.05
2022-08-21T09:06:26.957Z,49.85
2022-08-21T09:07:26.946Z,50.38
2022-08-21T09:08:31.958Z,50.48
2022-08-21T09:09:26.931Z,50.57
2022-08-21T09:10:26.912Z,50.68
2022-08-21T09:11:26.905Z,49.85
2022-08-21T09:12:26.894Z,50.25
2022-08-21T09:13:26.880Z,49.66
2022-08-21T09:14:27.303Z,49.95
2022-08-21T09:15:26.857Z,49.53
2022-08-21T09:16:26.849Z,48.64
2022-08-21T09:17:26.847Z,48.83
2022-08-21T09:18:26.824Z,49.04
2022-08-21T09:19:31.847Z,48.74
2022-08-21T09:20:26.801Z,48.64
2022-08-21T09:21:26.796Z,48.64
2022-08-21T09:22:26.779Z,49.04
2022-08-21T09:23:26.780Z,49.63
2022-08-21T09:24:26.768Z,48.61
2022-08-21T09:25:26.753Z,48.91
2022-08-21T09:26:26.736Z,48.71
2022-08-21T09:27:26.726Z,48.79
2022-08-21T09:28:26.713Z,48.69
2022-08-21T09:29:26.761Z,48.29
2022-08-21T09:30:31.729Z,48.39
2022-08-21T09:31:26.682Z,49.19
2022-08-21T09:32:37.518Z,48.39
2022-08-21T09:33:27.663Z,48.49
2022-08-21T09:34:26.647Z,48.07
2022-08-21T09:35:26.648Z,48.07
2022-08-21T09:36:26.626Z,47.97
2022-08-21T09:37:26.643Z,48.37
2022-08-21T09:38:26.602Z,47.47
2022-08-21T09:39:26.603Z,47.16
2022-08-21T09:40:26.658Z,46.66
2022-08-21T09:41:31.598Z,47.28
2022-08-21T09:42:26.560Z,47.38
2022-08-21T09:43:26.554Z,47.17
2022-08-21T09:44:26.570Z,46.19
2022-08-21T09:45:26.527Z,45.89
2022-08-21T09:46:26.515Z,45.98
2022-08-21T09:47:26.967Z,46.36
2022-08-21T09:48:27.176Z,45.47
2022-08-21T09:49:27.514Z,45.07
2022-08-21T09:50:26.474Z,45.17
2022-08-21T09:51:26.462Z,44.87
2022-08-21T09:52:31.474Z,44.37
2022-08-21T09:53:26.439Z,44.55
2022-08-21T09:54:26.428Z,44.06
2022-08-21T09:55:26.428Z,42.96
2022-08-21T09:56:26.404Z,43.56
2022-08-21T09:57:26.396Z,43.36
2022-08-21T09:58:26.384Z,43.54
2022-08-21T09:59:26.373Z,43.44
2022-08-21T10:00:26.373Z,43.04
2022-08-21T10:01:26.446Z,43.24
2022-08-21T10:02:26.341Z,43.66
2022-08-21T10:03:31.352Z,43.16
2022-08-21T10:04:26.325Z,43.04
2022-08-21T10:05:26.318Z,42.25
2022-08-21T10:06:26.295Z,41.46
2022-08-21T10:07:26.288Z,41.55
2022-08-21T10:08:26.273Z,41.75
2022-08-21T10:09:26.277Z,41.26
2022-08-21T10:10:26.263Z,41.36
2022-08-21T10:11:26.281Z,42.05
2022-08-21T10:12:26.234Z,41.55
2022-08-21T10:13:26.233Z,41.95
2022-08-21T10:14:31.241Z,41.26
2022-08-21T10:15:26.216Z,41.44
2022-08-21T10:16:26.190Z,41.73
2022-08-21T10:17:26.179Z,42.43
2022-08-21T10:18:26.165Z,41.73
2022-08-21T10:19:26.156Z,42.43
2022-08-21T10:20:26.159Z,42.03
2022-08-21T10:21:26.139Z,41.93
2022-08-21T10:22:26.123Z,42.63
2022-08-21T10:23:26.132Z,43.52
2022-08-21T10:24:30.947Z,42.13
2022-08-21T10:25:32.142Z,42.03
2022-08-21T10:26:26.083Z,41.81
2022-08-21T10:27:26.079Z,41.81
2022-08-21T10:28:26.068Z,41.63
2022-08-21T10:29:26.052Z,42.43
2022-08-21T10:30:26.046Z,42.03
2022-08-21T10:31:26.028Z,41.53
2022-08-21T10:32:26.786Z,41.44
2022-08-21T10:33:26.009Z,42.25
2022-08-21T10:34:25.993Z,42.77
2022-08-21T10:35:25.995Z,42.96
2022-08-21T10:36:30.993Z,42.86
2022-08-21T10:37:25.964Z,42.57
2022-08-21T10:38:48.839Z,42.57
2022-08-21T10:39:35.890Z,42.77
2022-08-21T10:40:27.018Z,42.57
2022-08-21T10:41:25.919Z,42.77
2022-08-21T10:42:28.268Z,43.06
2022-08-21T10:43:25.900Z,42.45
2022-08-21T10:44:25.885Z,42.17
2022-08-21T10:45:25.889Z,42.15
2022-08-21T10:46:25.864Z,42.74
2022-08-21T10:47:30.887Z,41.16
2022-08-21T10:48:25.848Z,41.73
2022-08-21T10:49:25.836Z,41.33
2022-08-21T10:50:25.821Z,41.53
2022-08-21T10:51:29.058Z,41.73
2022-08-21T10:52:25.804Z,41.61
2022-08-21T10:53:25.788Z,40.62
2022-08-21T10:54:25.778Z,40.90
2022-08-21T10:55:25.765Z,41.67
2022-08-21T10:56:25.763Z,40.98
2022-08-21T10:57:31.912Z,40.98
2022-08-21T10:58:31.751Z,40.90
2022-08-21T10:59:25.722Z,40.09
2022-08-21T11:00:25.871Z,39.50
2022-08-21T11:01:25.709Z,39.81
2022-08-21T11:02:25.688Z,41.20
2022-08-21T11:03:25.676Z,39.31
2022-08-21T11:04:25.670Z,39.51
2022-08-21T11:05:25.655Z,39.31
2022-08-21T11:06:25.670Z,40.50
2022-08-21T11:07:25.635Z,40.31
2022-08-21T11:08:25.619Z,40.11
2022-08-21T11:09:30.633Z,39.91
2022-08-21T11:10:25.724Z,39.91
2022-08-21T11:11:25.599Z,39.91
2022-08-21T11:12:26.574Z,39.61
2022-08-21T11:13:30.617Z,39.31
2022-08-21T11:14:26.578Z,40.80
2022-08-21T11:15:29.557Z,40.01
2022-08-21T11:16:25.542Z,39.71
2022-08-21T11:17:25.523Z,40.62
2022-08-21T11:18:25.510Z,39.43
2022-08-21T11:19:25.505Z,39.93
2022-08-21T11:20:30.525Z,40.42
2022-08-21T11:21:25.490Z,40.15
2022-08-21T11:22:25.464Z,40.52
2022-08-21T11:23:25.458Z,40.62
2022-08-21T11:24:25.475Z,40.84
2022-08-21T11:25:25.434Z,40.34
2022-08-21T11:26:26.429Z,40.15
2022-08-21T11:27:25.411Z,40.42
2022-08-21T11:28:25.402Z,39.34
2022-08-21T11:29:25.396Z,40.62
2022-08-21T11:30:25.391Z,39.43
2022-08-21T11:31:30.399Z,39.93
2022-08-21T11:32:25.357Z,39.71
2022-08-21T11:33:25.353Z,39.12
2022-08-21T11:34:25.336Z,39.12
2022-08-21T11:35:25.338Z,39.10
2022-08-21T11:36:25.328Z,39.29
2022-08-21T11:37:25.300Z,38.90
2022-08-21T11:38:25.291Z,38.68
2022-08-21T11:39:25.279Z,38.49
2022-08-21T11:40:25.337Z,38.49
2022-08-21T11:41:25.284Z,38.70
2022-08-21T11:42:30.266Z,39.40
2022-08-21T11:43:25.253Z,39.50
2022-08-21T11:44:25.227Z,38.90
2022-08-21T11:45:26.181Z,38.68
2022-08-21T11:46:25.210Z,38.19
2022-08-21T11:47:25.190Z,38.59
2022-08-21T11:48:25.179Z,38.19
2022-08-21T11:49:25.168Z,37.70
2022-08-21T11:50:34.225Z,38.49
2022-08-21T11:51:26.158Z,39.18
2022-08-21T11:52:25.132Z,38.27
2022-08-21T11:53:30.149Z,38.17
2022-08-21T11:54:25.111Z,38.17
2022-08-21T11:55:25.108Z,38.67
2022-08-21T11:56:25.099Z,38.49
2022-08-21T11:57:25.086Z,38.49
2022-08-21T11:58:25.066Z,39.28
2022-08-21T11:59:25.058Z,39.06
2022-08-21T12:00:25.051Z,38.17
2022-08-21T12:01:25.049Z,39.26
2022-08-21T12:02:25.077Z,37.48
2022-08-21T12:03:25.012Z,38.07
2022-08-21T12:04:30.041Z,37.96
2022-08-21T12:05:24.992Z,37.54
2022-08-21T12:06:24.979Z,36.71
2022-08-21T12:07:24.980Z,36.19
2022-08-21T12:08:24.964Z,35.36
2022-08-21T12:09:24.970Z,34.23
2022-08-21T12:10:24.936Z,33.00
2022-08-21T12:11:24.931Z,32.30
2022-08-21T12:12:25.934Z,31.40
2022-08-21T12:13:39.992Z,32.28
2022-08-21T12:14:25.932Z,31.57
2022-08-21T12:15:29.946Z,31.34
2022-08-21T12:16:24.894Z,30.54
2022-08-21T12:17:24.897Z,30.15
2022-08-21T12:18:24.852Z,30.33
2022-08-21T12:19:24.847Z,30.02
2022-08-21T12:20:24.829Z,30.22
2022-08-21T12:21:24.833Z,30.00
2022-08-21T12:22:24.811Z,31.17
2022-08-21T12:23:24.801Z,32.20
2022-08-21T12:24:24.789Z,32.10
2022-08-21T12:25:24.790Z,32.17
2022-08-21T12:26:24.781Z,31.54
2022-08-21T12:27:24.766Z,30.13
2022-08-21T12:28:29.771Z,30.32
2022-08-21T12:29:24.740Z,29.93
2022-08-21T12:30:25.798Z,29.42
2022-08-21T12:31:24.722Z,29.99
2022-08-21T12:32:24.717Z,29.10
2022-08-21T12:33:24.701Z,30.20
2022-08-21T12:34:24.686Z,29.21
2022-08-21T12:35:25.495Z,28.71
2022-08-21T12:36:24.667Z,28.42
2022-08-21T12:37:24.673Z,27.90
2022-08-21T12:38:24.646Z,28.57
2022-08-21T12:39:29.659Z,28.47
2022-08-21T12:40:24.722Z,28.12
2022-08-21T12:41:24.621Z,28.52
2022-08-21T12:42:24.618Z,28.89
2022-08-21T12:43:24.597Z,28.11
2022-08-21T12:44:24.586Z,27.41
2022-08-21T12:45:24.578Z,27.12
2022-08-21T12:46:24.568Z,28.72
2022-08-21T12:47:24.568Z,29.64
2022-08-21T12:48:25.007Z,31.50
2022-08-21T12:49:26.703Z,32.31
2022-08-21T12:50:29.557Z,32.23
2022-08-21T12:51:24.516Z,33.13
2022-08-21T12:52:24.517Z,33.43
2022-08-21T12:53:24.495Z,33.84
2022-08-21T12:54:24.486Z,33.94
2022-08-21T12:55:24.475Z,33.95
2022-08-21T12:56:24.467Z,33.87
2022-08-21T12:57:24.558Z,34.28
2022-08-21T12:58:24.442Z,34.08
2022-08-21T12:59:24.432Z,34.20
2022-08-21T13:00:24.420Z,34.20
2022-08-21T13:01:29.488Z,34.49
2022-08-21T13:02:24.435Z,34.49
2022-08-21T13:03:24.415Z,34.31
2022-08-21T13:04:24.378Z,33.92
2022-08-21T13:05:24.369Z,34.41
2022-08-21T13:06:24.356Z,34.63
2022-08-21T13:07:24.365Z,34.92
2022-08-21T13:08:24.344Z,35.31
2022-08-21T13:09:24.328Z,35.31
2022-08-21T13:10:24.319Z,35.12
2022-08-21T13:11:32.619Z,35.52
2022-08-21T13:12:28.336Z,36.00
2022-08-21T13:13:28.194Z,35.41
2022-08-21T13:14:29.303Z,35.61
2022-08-21T13:15:24.289Z,35.04
2022-08-21T13:16:24.308Z,36.30
2022-08-21T13:17:25.859Z,35.73
2022-08-21T13:18:24.240Z,36.44
2022-08-21T13:19:24.270Z,36.93
2022-08-21T13:20:24.212Z,36.82
2022-08-21T13:21:24.202Z,36.52
2022-08-21T13:22:34.584Z,35.85
2022-08-21T13:23:25.241Z,36.44
2022-08-21T13:24:42.816Z,37.13
2022-08-21T13:25:25.154Z,36.42
2022-08-21T13:26:24.154Z,36.02
2022-08-21T13:27:29.155Z,36.14
2022-08-21T13:28:24.153Z,36.34
2022-08-21T13:29:24.260Z,35.63
2022-08-21T13:30:24.100Z,36.24
2022-08-21T13:31:24.090Z,36.02
2022-08-21T13:32:24.079Z,36.32
2022-08-21T13:33:24.081Z,36.22
2022-08-21T13:34:25.098Z,36.04
2022-08-21T13:35:24.045Z,36.44
2022-08-21T13:36:24.036Z,36.14
2022-08-21T13:37:24.031Z,37.23
2022-08-21T13:38:27.264Z,35.85
2022-08-21T13:39:24.007Z,35.35
2022-08-21T13:40:29.020Z,35.85
2022-08-21T13:41:23.989Z,36.04
2022-08-21T13:42:23.990Z,36.12
2022-08-21T13:43:23.972Z,36.73
2022-08-21T13:44:23.958Z,36.32
2022-08-21T13:45:23.957Z,35.73
2022-08-21T13:46:23.929Z,35.73
2022-08-21T13:47:23.925Z,36.42
2022-08-21T13:48:23.921Z,36.61
2022-08-21T13:49:23.899Z,36.40
2022-08-21T13:50:23.890Z,36.40
2022-08-21T13:51:28.901Z,36.00
2022-08-21T13:52:23.869Z,36.21
2022-08-21T13:53:23.864Z,35.81
2022-08-21T13:54:23.841Z,35.61
2022-08-21T13:55:23.833Z,35.61
2022-08-21T13:56:23.830Z,36.60
2022-08-21T13:57:23.814Z,36.00
2022-08-21T13:58:23.807Z,35.61
2022-08-21T13:59:23.785Z,35.81
2022-08-21T14:00:23.776Z,36.11
2022-08-21T14:01:23.832Z,35.12
2022-08-21T14:02:28.791Z,35.31
2022-08-21T14:03:23.743Z,36.80
2022-08-21T14:04:23.739Z,35.31
2022-08-21T14:05:23.722Z,36.00
2022-08-21T14:06:23.714Z,35.52
2022-08-21T14:07:23.709Z,36.50
2022-08-21T14:08:30.072Z,36.21
2022-08-21T14:09:24.676Z,35.73
2022-08-21T14:10:23.676Z,36.32
2022-08-21T14:11:23.658Z,35.63
2022-08-21T14:12:24.016Z,35.63
2022-08-21T14:13:28.708Z,36.24
2022-08-21T14:14:23.624Z,35.15
2022-08-21T14:15:23.613Z,35.85
2022-08-21T14:16:23.604Z,35.85
2022-08-21T14:17:25.028Z,36.04
2022-08-21T14:18:23.595Z,35.17
2022-08-21T14:19:23.570Z,35.86
2022-08-21T14:20:23.561Z,35.96
2022-08-21T14:21:23.551Z,37.05
2022-08-21T14:22:23.538Z,35.66
2022-08-21T14:23:23.535Z,36.06
2022-08-21T14:24:28.548Z,37.94
2022-08-21T14:25:23.504Z,37.72
2022-08-21T14:26:23.513Z,36.73
2022-08-21T14:27:23.486Z,36.54
2022-08-21T14:28:23.491Z,36.24
2022-08-21T14:29:23.482Z,36.73
2022-08-21T14:30:23.457Z,36.54
2022-08-21T14:31:23.457Z,36.93
2022-08-21T14:32:25.056Z,36.93
2022-08-21T14:33:23.435Z,37.01
2022-08-21T14:34:23.410Z,36.52
2022-08-21T14:35:28.422Z,36.04
2022-08-21T14:36:23.415Z,36.32
2022-08-21T14:37:23.379Z,35.93
2022-08-21T14:38:23.377Z,35.73
2022-08-21T14:39:23.365Z,36.63
2022-08-21T14:40:23.445Z,36.12
2022-08-21T14:41:23.337Z,35.63
2022-08-21T14:42:23.322Z,35.25
2022-08-21T14:43:23.319Z,36.71
2022-08-21T14:44:23.302Z,35.85
2022-08-21T14:45:24.773Z,36.52
2022-08-21T14:46:28.304Z,36.44
2022-08-21T14:47:23.268Z,36.54
2022-08-21T14:48:23.271Z,35.35
2022-08-21T14:49:23.245Z,35.76
2022-08-21T14:50:23.236Z,36.36
2022-08-21T14:51:23.228Z,36.24
2022-08-21T14:52:23.216Z,35.35
2022-08-21T14:53:23.215Z,36.04
2022-08-21T14:54:23.287Z,35.85
2022-08-21T14:55:24.182Z,35.76
2022-08-21T14:56:23.172Z,35.86
2022-08-21T14:57:28.184Z,35.86
2022-08-21T14:58:23.158Z,35.76
2022-08-21T14:59:23.138Z,35.47
2022-08-21T15:00:23.126Z,36.14
2022-08-21T15:01:23.221Z,35.94
2022-08-21T15:02:23.108Z,35.35
2022-08-21T15:03:23.108Z,35.75
2022-08-21T15:04:23.084Z,36.04
2022-08-21T15:05:26.814Z,35.85
2022-08-21T15:06:24.066Z,36.04
2022-08-21T15:07:23.050Z,35.85
2022-08-21T15:08:28.077Z,35.75
2022-08-21T15:09:23.030Z,35.75
2022-08-21T15:10:23.019Z,35.64
2022-08-21T15:11:41.401Z,35.64
2022-08-21T15:12:23.999Z,35.25
2022-08-21T15:13:23.001Z,35.85
2022-08-21T15:14:22.978Z,35.75
2022-08-21T15:15:22.963Z,35.85
2022-08-21T15:16:22.954Z,35.57
2022-08-21T15:17:22.941Z,35.76
2022-08-21T15:18:22.934Z,35.86
2022-08-21T15:19:27.952Z,35.76
2022-08-21T15:20:22.911Z,35.66
2022-08-21T15:21:22.898Z,35.86
2022-08-21T15:22:27.696Z,35.64
2022-08-21T15:23:23.887Z,35.94
2022-08-21T15:24:22.867Z,35.66
2022-08-21T15:25:22.859Z,35.76
2022-08-21T15:26:22.846Z,36.14
2022-08-21T15:27:22.835Z,35.57
2022-08-21T15:28:22.823Z,35.86
2022-08-21T15:29:23.078Z,35.55
2022-08-21T15:30:27.825Z,35.25
2022-08-21T15:31:22.791Z,35.75
2022-08-21T15:32:22.781Z,35.45
2022-08-21T15:33:22.767Z,34.56
2022-08-21T15:34:27.121Z,35.55
2022-08-21T15:35:23.746Z,35.94
2022-08-21T15:36:22.749Z,35.57
2022-08-21T15:37:22.725Z,35.86
2022-08-21T15:38:22.717Z,35.88
2022-08-21T15:39:24.726Z,35.37
2022-08-21T15:40:22.748Z,35.66
2022-08-21T15:41:27.709Z,35.76
2022-08-21T15:42:22.674Z,35.66
2022-08-21T15:43:22.660Z,35.15
2022-08-21T15:44:23.688Z,36.04
2022-08-21T15:45:22.638Z,35.76
2022-08-21T15:46:22.628Z,36.04
2022-08-21T15:47:22.622Z,35.55
2022-08-21T15:48:22.607Z,35.45
2022-08-21T15:49:22.610Z,35.64
2022-08-21T15:50:22.583Z,35.75
2022-08-21T15:51:22.577Z,35.85
2022-08-21T15:52:27.585Z,35.05
2022-08-21T15:53:22.550Z,35.43
2022-08-21T15:54:22.554Z,35.14
2022-08-21T15:55:22.528Z,34.66
2022-08-21T15:56:22.529Z,34.84
2022-08-21T15:57:22.506Z,34.76
2022-08-21T15:58:22.497Z,35.15
2022-08-21T15:59:22.495Z,34.56
2022-08-21T16:00:22.477Z,35.04
2022-08-21T16:01:22.535Z,34.66
2022-08-21T16:02:22.457Z,34.86
2022-08-21T16:03:27.468Z,34.56
2022-08-21T16:04:22.447Z,35.14
2022-08-21T16:05:22.421Z,34.64
2022-08-21T16:06:38.550Z,34.25
2022-08-21T16:07:23.400Z,34.17
2022-08-21T16:08:22.395Z,34.64
2022-08-21T16:09:22.388Z,34.66
2022-08-21T16:10:22.369Z,35.05
2022-08-21T16:11:22.357Z,34.76
2022-08-21T16:12:22.347Z,34.58
2022-08-21T16:13:22.333Z,35.66
2022-08-21T16:14:27.358Z,35.86
2022-08-21T16:15:22.328Z,35.96
2022-08-21T16:16:22.301Z,35.86
2022-08-21T16:17:22.289Z,35.57
2022-08-21T16:18:22.286Z,35.07
2022-08-21T16:19:22.278Z,35.86
2022-08-21T16:20:22.263Z,35.86
2022-08-21T16:21:22.246Z,35.86
2022-08-21T16:22:22.239Z,35.86
2022-08-21T16:23:22.228Z,35.64
2022-08-21T16:24:22.224Z,34.88
2022-08-21T16:25:27.251Z,34.95
2022-08-21T16:26:22.193Z,34.38
2022-08-21T16:27:22.180Z,34.78
2022-08-21T16:28:23.169Z,34.78
2022-08-21T16:29:22.167Z,34.46
2022-08-21T16:30:22.151Z,34.88
2022-08-21T16:31:22.140Z,34.78
2022-08-21T16:32:22.128Z,34.67
2022-08-21T16:33:22.112Z,35.09
2022-08-21T16:34:22.113Z,34.79
2022-08-21T16:35:22.094Z,34.99
2022-08-21T16:36:27.104Z,35.68
2022-08-21T16:37:24.439Z,35.88
2022-08-21T16:38:22.060Z,35.98
2022-08-21T16:39:22.057Z,35.68
2022-08-21T16:40:22.105Z,35.88
2022-08-21T16:41:22.040Z,35.78
2022-08-21T16:42:22.851Z,35.88
2022-08-21T16:43:22.005Z,35.49
2022-08-21T16:44:22.005Z,35.78
2022-08-21T16:45:21.982Z,35.76
2022-08-21T16:46:21.970Z,35.98
2022-08-21T16:47:27.537Z,35.78
2022-08-21T16:48:21.966Z,35.98
2022-08-21T16:49:21.949Z,35.88
2022-08-21T16:50:21.930Z,35.78
2022-08-21T16:51:21.915Z,35.98
2022-08-21T16:52:21.904Z,36.27